createdAt,value
2018-12-24T00:01:11.459Z,-3.50
2018-12-24T00:03:38.125Z,-3.60
2018-12-24T00:06:04.668Z,-3.60
2018-12-24T00:08:31.222Z,-3.50
2018-12-24T00:10:57.983Z,-3.60
2018-12-24T00:13:24.602Z,-3.60
2018-12-24T00:15:51.440Z,-3.70
2018-12-24T00:18:18.048Z,-3.60
2018-12-24T00:20:44.737Z,-3.60
2018-12-24T00:23:11.642Z,-3.60
2018-12-24T00:25:38.262Z,-3.60
2018-12-24T00:28:04.980Z,-3.60
2018-12-24T00:30:32.501Z,-3.50
2018-12-24T00:32:59.126Z,-3.50
2018-12-24T00:35:25.631Z,-3.70
2018-12-24T00:37:52.211Z,-3.60
2018-12-24T00:40:19.187Z,-3.60
2018-12-24T00:42:45.704Z,-3.50
2018-12-24T00:45:12.364Z,-3.60
2018-12-24T00:47:39.021Z,-3.60
2018-12-24T00:50:05.718Z,-3.60
2018-12-24T00:52:32.344Z,-3.60
2018-12-24T00:54:58.841Z,-3.60
2018-12-24T00:57:25.478Z,-3.50
2018-12-24T00:59:52.157Z,-3.60
2018-12-24T01:02:18.950Z,-3.60
2018-12-24T01:04:45.733Z,-3.70
2018-12-24T01:07:12.377Z,-3.70
2018-12-24T01:09:38.998Z,-3.70
2018-12-24T01:12:05.606Z,-3.60
2018-12-24T01:14:32.460Z,-3.60
2018-12-24T01:16:58.974Z,-3.60
2018-12-24T01:19:25.582Z,-3.80
2018-12-24T01:21:52.161Z,-3.70
2018-12-24T01:24:18.678Z,-3.70
2018-12-24T01:27:31.863Z,-3.60
2018-12-24T01:29:58.397Z,-3.60
2018-12-24T01:32:24.690Z,-3.60
2018-12-24T01:34:51.336Z,-3.60
2018-12-24T01:37:17.621Z,-3.60
2018-12-24T01:39:44.191Z,-3.60
2018-12-24T01:42:10.750Z,-3.60
2018-12-24T01:44:37.353Z,-3.60
2018-12-24T01:47:03.880Z,-3.50
2018-12-24T01:49:30.263Z,-3.50
2018-12-24T01:51:56.672Z,-3.50
2018-12-24T01:54:23.055Z,-3.60
2018-12-24T01:56:49.526Z,-3.50
2018-12-24T01:59:16.937Z,-3.60
2018-12-24T02:01:44.266Z,-3.50
2018-12-24T02:04:10.788Z,-3.60
2018-12-24T02:06:37.387Z,-3.50
2018-12-24T02:09:05.298Z,-3.50
2018-12-24T02:11:31.862Z,-3.40
2018-12-24T02:13:58.330Z,-3.50
2018-12-24T02:16:24.871Z,-3.40
2018-12-24T02:18:51.314Z,-3.50
2018-12-24T02:21:17.692Z,-3.70
2018-12-24T02:23:44.093Z,-3.70
2018-12-24T02:26:10.694Z,-3.60
2018-12-24T02:28:37.127Z,-3.60
2018-12-24T02:31:03.613Z,-3.60
2018-12-24T02:33:30.188Z,-3.60
2018-12-24T02:35:56.710Z,-3.80
2018-12-24T02:38:23.100Z,-3.90
2018-12-24T02:40:49.502Z,-3.80
2018-12-24T02:43:15.999Z,-3.80
2018-12-24T02:45:42.394Z,-3.80
2018-12-24T02:48:08.884Z,-3.90
2018-12-24T02:50:35.423Z,-3.80
2018-12-24T02:53:01.918Z,-3.70
2018-12-24T02:55:28.534Z,-3.80
2018-12-24T02:57:54.918Z,-3.70
2018-12-24T03:00:21.710Z,-3.70
2018-12-24T03:02:48.130Z,-3.70
2018-12-24T03:05:14.685Z,-3.60
2018-12-24T03:07:40.999Z,-3.60
2018-12-24T03:10:07.462Z,-3.60
2018-12-24T03:12:33.879Z,-3.60
2018-12-24T03:15:00.499Z,-3.60
2018-12-24T03:17:27.044Z,-3.80
2018-12-24T03:19:53.540Z,-3.70
2018-12-24T03:22:20.087Z,-3.70
2018-12-24T03:24:46.577Z,-3.70
2018-12-24T03:27:12.983Z,-3.70
2018-12-24T03:29:39.580Z,-3.70
2018-12-24T03:32:06.525Z,-3.80
2018-12-24T03:34:32.942Z,-3.70
2018-12-24T03:36:59.439Z,-3.70
2018-12-24T03:39:25.970Z,-3.60
2018-12-24T03:41:52.372Z,-3.60
2018-12-24T03:44:18.858Z,-3.70
2018-12-24T03:46:45.353Z,-3.70
2018-12-24T03:49:11.934Z,-3.70
2018-12-24T03:51:38.422Z,-3.80
2018-12-24T03:54:04.830Z,-3.70
2018-12-24T03:56:31.467Z,-3.70
2018-12-24T03:58:58.171Z,-3.70
2018-12-24T04:01:24.815Z,-3.70
2018-12-24T04:03:51.201Z,-3.70
2018-12-24T04:06:17.624Z,-3.60
2018-12-24T04:08:44.263Z,-3.60
2018-12-24T04:11:10.616Z,-3.60
2018-12-24T04:13:37.129Z,-3.60
2018-12-24T04:16:03.530Z,-3.50
2018-12-24T04:18:29.959Z,-3.60
2018-12-24T04:20:56.477Z,-3.60
2018-12-24T04:23:22.887Z,-3.60
2018-12-24T04:25:49.526Z,-3.60
2018-12-24T04:28:15.944Z,-3.70
2018-12-24T04:30:42.333Z,-3.70
2018-12-24T04:33:08.866Z,-3.60
2018-12-24T04:35:35.366Z,-3.60
2018-12-24T04:38:01.783Z,-3.60
2018-12-24T04:40:28.267Z,-3.50
2018-12-24T04:42:54.803Z,-3.60
2018-12-24T04:45:21.209Z,-3.60
2018-12-24T04:47:47.707Z,-3.60
2018-12-24T04:50:14.090Z,-3.60
2018-12-24T04:52:40.489Z,-3.50
2018-12-24T04:55:07.039Z,-3.50
2018-12-24T04:57:33.462Z,-3.50
2018-12-24T04:59:59.880Z,-3.50
2018-12-24T05:02:26.507Z,-3.40
2018-12-24T05:04:52.908Z,-3.40
2018-12-24T05:07:19.316Z,-3.40
2018-12-24T05:09:45.711Z,-3.40
2018-12-24T05:12:12.082Z,-3.40
2018-12-24T05:14:38.591Z,-3.40
2018-12-24T05:17:05.105Z,-3.30
2018-12-24T05:19:31.587Z,-3.40
2018-12-24T05:21:58.106Z,-3.40
2018-12-24T05:24:24.596Z,-3.50
2018-12-24T05:26:51.072Z,-3.50
2018-12-24T05:29:18.777Z,-3.50
2018-12-24T05:31:45.418Z,-3.40
2018-12-24T05:34:11.906Z,-3.40
2018-12-24T05:36:38.555Z,-3.40
2018-12-24T05:39:05.069Z,-3.40
2018-12-24T05:41:31.598Z,-3.50
2018-12-24T05:43:58.252Z,-3.50
2018-12-24T05:46:24.760Z,-3.50
2018-12-24T05:48:51.162Z,-3.60
2018-12-24T05:51:17.552Z,-3.50
2018-12-24T05:53:44.064Z,-3.50
2018-12-24T05:56:10.568Z,-3.50
2018-12-24T05:58:37.074Z,-3.50
2018-12-24T06:01:04.984Z,-3.50
2018-12-24T06:03:31.450Z,-3.40
2018-12-24T06:05:58.124Z,-3.40
2018-12-24T06:08:24.658Z,-3.40
2018-12-24T06:10:51.172Z,-3.40
2018-12-24T06:13:17.703Z,-3.60
2018-12-24T06:15:44.240Z,-3.50
2018-12-24T06:18:10.762Z,-3.40
2018-12-24T06:20:37.973Z,-3.40
2018-12-24T06:23:04.537Z,-3.40
2018-12-24T06:25:30.937Z,-3.30
2018-12-24T06:27:57.574Z,-3.40
2018-12-24T06:30:24.079Z,-3.40
2018-12-24T06:32:50.613Z,-3.40
2018-12-24T06:35:17.243Z,-3.40
2018-12-24T06:37:43.767Z,-3.40
2018-12-24T06:40:10.031Z,-3.40
2018-12-24T06:42:36.594Z,-3.40
2018-12-24T06:45:04.286Z,-3.40
2018-12-24T06:47:30.923Z,-3.40
2018-12-24T06:49:57.364Z,-3.40
2018-12-24T06:52:23.877Z,-3.30
2018-12-24T06:54:50.446Z,-3.30
2018-12-24T06:57:16.930Z,-3.30
2018-12-24T06:59:43.403Z,-3.30
2018-12-24T07:02:09.926Z,-3.20
2018-12-24T07:04:36.427Z,-3.20
2018-12-24T07:07:02.947Z,-3.30
2018-12-24T07:09:29.827Z,-3.20
2018-12-24T07:11:56.138Z,-3.20
2018-12-24T07:14:22.694Z,-3.20
2018-12-24T07:16:49.196Z,-3.20
2018-12-24T07:19:15.810Z,-3.20
2018-12-24T07:21:42.102Z,-3.10
2018-12-24T07:24:08.524Z,-3.20
2018-12-24T07:26:35.118Z,-3.10
2018-12-24T07:29:01.575Z,-3.10
2018-12-24T07:31:27.837Z,-3.10
2018-12-24T07:33:54.333Z,-3.10
2018-12-24T07:36:20.670Z,-3.10
2018-12-24T07:38:47.230Z,-3.10
2018-12-24T07:41:13.602Z,-3.10
2018-12-24T07:43:40.221Z,-3.10
2018-12-24T07:46:06.810Z,-3.10
2018-12-24T07:48:33.068Z,-3.10
2018-12-24T07:50:59.470Z,-3.00
2018-12-24T07:53:45.617Z,-3.00
2018-12-24T07:56:11.887Z,-3.00
2018-12-24T07:58:39.495Z,-3.00
2018-12-24T08:01:06.430Z,-2.90
2018-12-24T08:03:33.411Z,-2.90
2018-12-24T08:05:59.937Z,-2.90
2018-12-24T08:08:26.409Z,-2.90
2018-12-24T08:10:53.007Z,-3.00
2018-12-24T08:13:19.494Z,-3.00
2018-12-24T08:15:45.996Z,-3.00
2018-12-24T08:18:12.434Z,-3.10
2018-12-24T08:20:38.957Z,-3.00
2018-12-24T08:23:05.564Z,-3.10
2018-12-24T08:25:31.869Z,-3.10
2018-12-24T08:27:58.247Z,-3.10
2018-12-24T08:30:24.836Z,-3.10
2018-12-24T08:32:52.858Z,-3.10
2018-12-24T08:35:19.301Z,-3.10
2018-12-24T08:37:45.551Z,-3.10
2018-12-24T08:40:11.960Z,-3.20
2018-12-24T08:42:38.478Z,-3.20
2018-12-24T08:45:05.043Z,-3.20
2018-12-24T08:47:31.646Z,-3.20
2018-12-24T08:49:58.127Z,-3.20
2018-12-24T08:52:24.538Z,-3.20
2018-12-24T08:54:51.519Z,-3.30
2018-12-24T08:57:18.472Z,-3.40
2018-12-24T08:59:45.063Z,-3.50
2018-12-24T09:02:11.438Z,-3.50
2018-12-24T09:04:38.043Z,-3.70
2018-12-24T09:07:04.453Z,-3.80
2018-12-24T09:09:31.166Z,-3.80
2018-12-24T09:11:57.801Z,-3.90
2018-12-24T09:14:24.415Z,-3.90
2018-12-24T09:16:50.989Z,-4.00
2018-12-24T09:19:17.542Z,-4.00
2018-12-24T09:21:43.949Z,-4.10
2018-12-24T09:24:10.461Z,-4.20
2018-12-24T09:26:37.079Z,-4.30
2018-12-24T09:29:04.618Z,-4.30
2018-12-24T09:31:31.273Z,-4.30
2018-12-24T09:33:57.890Z,-4.30
2018-12-24T09:36:24.502Z,-4.30
2018-12-24T09:38:52.842Z,-4.30
2018-12-24T09:41:19.685Z,-4.30
2018-12-24T09:43:46.163Z,-4.40
2018-12-24T09:46:12.764Z,-4.40
2018-12-24T09:48:39.151Z,-4.50
2018-12-24T09:51:05.666Z,-4.50
2018-12-24T09:53:32.299Z,-4.60
2018-12-24T09:55:59.194Z,-4.60
2018-12-24T09:58:25.802Z,-4.60
2018-12-24T10:00:52.486Z,-4.70
2018-12-24T10:03:18.995Z,-4.80
2018-12-24T10:05:45.493Z,-4.90
2018-12-24T10:08:13.174Z,-4.90
2018-12-24T10:10:39.679Z,-4.90
2018-12-24T10:13:06.254Z,-4.90
2018-12-24T10:15:32.865Z,-4.90
2018-12-24T10:17:59.477Z,-4.90
2018-12-24T10:20:26.401Z,-4.90
2018-12-24T10:22:53.432Z,-4.90
2018-12-24T10:25:19.873Z,-4.90
2018-12-24T10:27:46.280Z,-4.80
2018-12-24T10:30:12.796Z,-4.80
2018-12-24T10:32:39.258Z,-4.80
2018-12-24T10:35:05.880Z,-4.80
2018-12-24T10:37:32.515Z,-4.80
2018-12-24T10:39:59.614Z,-4.70
2018-12-24T10:42:26.248Z,-4.60
2018-12-24T10:44:52.859Z,-4.60
2018-12-24T10:47:39.569Z,-4.60
2018-12-24T10:50:06.096Z,-4.60
2018-12-24T10:52:32.634Z,-4.70
2018-12-24T10:54:59.321Z,-4.70
2018-12-24T10:57:25.877Z,-4.80
2018-12-24T10:59:52.406Z,-4.70
2018-12-24T11:02:18.850Z,-4.80
2018-12-24T11:04:45.363Z,-4.80
2018-12-24T11:07:11.856Z,-4.90
2018-12-24T11:09:38.349Z,-4.90
2018-12-24T11:12:04.961Z,-5.00
2018-12-24T11:14:33.185Z,-5.00
2018-12-24T11:16:59.558Z,-5.00
2018-12-24T11:19:26.195Z,-5.10
2018-12-24T11:21:52.586Z,-5.10
2018-12-24T11:24:19.086Z,-5.10
2018-12-24T11:26:45.840Z,-5.10
2018-12-24T11:29:12.368Z,-5.10
2018-12-24T11:31:38.848Z,-5.10
2018-12-24T11:34:05.492Z,-5.10
2018-12-24T11:36:32.208Z,-5.10
2018-12-24T11:38:58.772Z,-5.00
2018-12-24T11:41:25.381Z,-5.00
2018-12-24T11:43:52.355Z,-4.90
2018-12-24T11:46:18.857Z,-4.90
2018-12-24T11:48:45.443Z,-4.80
2018-12-24T11:51:12.451Z,-4.90
2018-12-24T11:53:38.952Z,-5.00
2018-12-24T11:56:05.429Z,-5.00
2018-12-24T11:58:32.127Z,-5.00
2018-12-24T12:00:58.622Z,-5.10
2018-12-24T12:03:25.055Z,-5.10
2018-12-24T12:05:51.310Z,-5.10
2018-12-24T12:08:17.784Z,-5.10
2018-12-24T12:10:44.254Z,-5.20
2018-12-24T12:13:10.686Z,-5.20
2018-12-24T12:15:42.595Z,-5.20
2018-12-24T12:18:05.480Z,-5.30
2018-12-24T12:20:31.974Z,-5.30
2018-12-24T12:22:58.482Z,-5.40
2018-12-24T12:25:25.061Z,-5.40
2018-12-24T12:27:51.538Z,-5.40
2018-12-24T12:30:18.053Z,-5.50
2018-12-24T12:32:44.573Z,-5.50
2018-12-24T12:35:11.349Z,-5.50
2018-12-24T12:37:37.682Z,-5.60
2018-12-24T12:40:05.078Z,-5.50
2018-12-24T12:42:31.594Z,-5.60
2018-12-24T12:44:58.007Z,-5.60
2018-12-24T12:47:24.533Z,-5.60
2018-12-24T12:49:50.914Z,-5.60
2018-12-24T12:52:17.572Z,-5.70
2018-12-24T12:54:44.066Z,-5.70
2018-12-24T12:57:10.456Z,-5.70
2018-12-24T12:59:37.080Z,-5.70
2018-12-24T13:02:03.754Z,-5.70
2018-12-24T13:04:30.124Z,-5.70
2018-12-24T13:06:56.699Z,-5.70
2018-12-24T13:09:23.223Z,-5.70
2018-12-24T13:11:49.755Z,-5.70
2018-12-24T13:14:16.201Z,-5.80
2018-12-24T13:16:42.693Z,-5.80
2018-12-24T13:19:09.208Z,-5.80
2018-12-24T13:21:35.782Z,-5.80
2018-12-24T13:24:02.426Z,-5.80
2018-12-24T13:26:29.708Z,-5.80
2018-12-24T13:28:56.239Z,-5.80
2018-12-24T13:31:22.760Z,-5.80
2018-12-24T13:33:49.136Z,-5.80
2018-12-24T13:36:15.607Z,-5.80
2018-12-24T13:38:42.158Z,-5.80
2018-12-24T13:41:08.816Z,-5.80
2018-12-24T13:43:35.346Z,-5.80
2018-12-24T13:46:08.063Z,-5.80
2018-12-24T13:48:30.328Z,-5.90
2018-12-24T13:50:56.943Z,-5.90
2018-12-24T13:53:23.339Z,-5.90
2018-12-24T13:55:49.772Z,-6.00
2018-12-24T13:58:16.150Z,-6.00
2018-12-24T14:00:43.577Z,-6.00
2018-12-24T14:03:10.090Z,-5.90
2018-12-24T14:05:36.694Z,-6.00
2018-12-24T14:08:03.300Z,-6.00
2018-12-24T14:10:29.819Z,-6.00
2018-12-24T14:12:56.396Z,-6.00
2018-12-24T14:15:23.722Z,-6.00
2018-12-24T14:17:50.212Z,-6.10
2018-12-24T14:20:16.720Z,-6.10
2018-12-24T14:22:43.363Z,-6.10
2018-12-24T14:25:09.718Z,-6.10
2018-12-24T14:27:36.214Z,-6.10
2018-12-24T14:30:05.925Z,-6.10
2018-12-24T14:32:32.567Z,-6.10
2018-12-24T14:34:59.094Z,-6.10
2018-12-24T14:37:25.527Z,-6.10
2018-12-24T14:39:51.860Z,-6.10
2018-12-24T14:42:18.344Z,-6.10
2018-12-24T14:44:44.957Z,-6.10
2018-12-24T14:47:11.422Z,-6.10
2018-12-24T14:49:38.136Z,-6.10
2018-12-24T14:52:04.619Z,-6.10
2018-12-24T14:54:31.014Z,-6.10
2018-12-24T14:56:57.476Z,-6.10
2018-12-24T14:59:23.886Z,-6.10
2018-12-24T15:01:50.222Z,-6.10
2018-12-24T15:04:16.750Z,-6.10
2018-12-24T15:06:43.263Z,-6.10
2018-12-24T15:09:11.479Z,-6.10
2018-12-24T15:11:40.141Z,-6.00
2018-12-24T15:14:06.558Z,-6.00
2018-12-24T15:16:34.106Z,-6.00
2018-12-24T15:19:02.658Z,-6.00
2018-12-24T15:21:29.761Z,-6.00
2018-12-24T15:23:56.691Z,-6.00
2018-12-24T15:26:23.176Z,-6.00
2018-12-24T15:28:52.331Z,-6.00
2018-12-24T15:31:21.921Z,-6.00
2018-12-24T15:33:48.504Z,-6.00
2018-12-24T15:36:15.058Z,-6.00
2018-12-24T15:38:41.735Z,-6.00
2018-12-24T15:41:10.067Z,-6.00
2018-12-24T15:43:36.600Z,-6.00
2018-12-24T15:46:03.213Z,-5.90
2018-12-24T15:48:29.670Z,-5.90
2018-12-24T15:50:56.225Z,-5.90
2018-12-24T15:53:22.686Z,-6.00
2018-12-24T15:55:49.074Z,-6.00
2018-12-24T15:58:15.606Z,-6.00
2018-12-24T16:00:42.839Z,-6.00
2018-12-24T16:03:09.547Z,-5.90
2018-12-24T16:05:36.010Z,-5.90
2018-12-24T16:08:02.646Z,-5.90
2018-12-24T16:10:29.311Z,-6.00
2018-12-24T16:12:55.702Z,-6.00
2018-12-24T16:15:22.236Z,-6.00
2018-12-24T16:17:48.737Z,-6.00
2018-12-24T16:20:15.259Z,-5.90
2018-12-24T16:22:41.900Z,-5.90
2018-12-24T16:25:08.674Z,-5.90
2018-12-24T16:27:35.180Z,-5.90
2018-12-24T16:30:02.493Z,-5.90
2018-12-24T16:32:29.079Z,-5.90
2018-12-24T16:34:55.698Z,-5.80
2018-12-24T16:37:22.191Z,-5.90
2018-12-24T16:39:48.713Z,-5.80
2018-12-24T16:42:15.289Z,-5.80
2018-12-24T16:44:41.796Z,-5.80
2018-12-24T16:47:08.329Z,-5.80
2018-12-24T16:49:34.722Z,-5.80
2018-12-24T16:52:01.325Z,-5.80
2018-12-24T16:54:27.832Z,-5.80
2018-12-24T16:56:54.471Z,-5.70
2018-12-24T16:59:20.887Z,-5.70
2018-12-24T17:01:47.372Z,-5.70
2018-12-24T17:04:13.834Z,-5.60
2018-12-24T17:06:41.483Z,-5.70
2018-12-24T17:09:08.191Z,-5.60
2018-12-24T17:11:34.710Z,-5.60
2018-12-24T17:14:01.353Z,-5.60
2018-12-24T17:16:27.823Z,-5.60
2018-12-24T17:18:54.206Z,-5.50
2018-12-24T17:21:20.735Z,-5.50
2018-12-24T17:23:47.205Z,-5.50
2018-12-24T17:26:13.860Z,-5.50
2018-12-24T17:28:40.331Z,-5.50
2018-12-24T17:31:06.838Z,-5.50
2018-12-24T17:33:33.475Z,-5.50
2018-12-24T17:35:59.963Z,-5.50
2018-12-24T17:38:26.455Z,-5.50
2018-12-24T17:40:52.959Z,-5.40
2018-12-24T17:43:19.367Z,-5.40
2018-12-24T17:45:45.855Z,-5.40
2018-12-24T17:48:12.422Z,-5.40
2018-12-24T17:50:38.910Z,-5.40
2018-12-24T17:53:05.287Z,-5.40
2018-12-24T17:55:31.858Z,-5.40
2018-12-24T17:57:58.358Z,-5.30
2018-12-24T18:00:24.898Z,-5.30
2018-12-24T18:02:51.391Z,-5.30
2018-12-24T18:05:18.013Z,-5.30
2018-12-24T18:07:44.492Z,-5.30
2018-12-24T18:10:11.048Z,-5.30
2018-12-24T18:12:37.380Z,-5.20
2018-12-24T18:15:03.982Z,-5.20
2018-12-24T18:17:30.458Z,-5.20
2018-12-24T18:19:57.084Z,-5.10
2018-12-24T18:22:23.601Z,-5.10
2018-12-24T18:24:49.984Z,-5.00
2018-12-24T18:27:16.538Z,-5.00
2018-12-24T18:29:42.906Z,-5.00
2018-12-24T18:32:09.317Z,-5.00
2018-12-24T18:34:35.826Z,-5.00
2018-12-24T18:37:03.148Z,-4.90
2018-12-24T18:39:29.801Z,-4.90
2018-12-24T18:41:56.379Z,-4.90
2018-12-24T18:44:22.804Z,-4.80
2018-12-24T18:46:49.372Z,-4.80
2018-12-24T18:49:15.950Z,-4.80
2018-12-24T18:51:42.483Z,-4.80
2018-12-24T18:54:10.906Z,-4.80
2018-12-24T18:56:37.583Z,-4.80
2018-12-24T18:59:04.156Z,-4.80
2018-12-24T19:01:30.953Z,-4.70
2018-12-24T19:03:57.760Z,-4.70
2018-12-24T19:06:24.190Z,-4.70
2018-12-24T19:08:50.662Z,-4.70
2018-12-24T19:11:17.249Z,-4.70
2018-12-24T19:13:43.723Z,-4.60
2018-12-24T19:16:10.253Z,-4.70
2018-12-24T19:18:37.048Z,-4.60
2018-12-24T19:21:03.550Z,-4.60
2018-12-24T19:23:32.131Z,-4.60
2018-12-24T19:25:58.607Z,-4.50
2018-12-24T19:28:24.986Z,-4.50
2018-12-24T19:30:51.599Z,-4.50
2018-12-24T19:33:17.984Z,-4.50
2018-12-24T19:35:44.488Z,-4.50
2018-12-24T19:38:11.122Z,-4.50
2018-12-24T19:40:37.711Z,-4.40
2018-12-24T19:43:04.356Z,-4.40
2018-12-24T19:45:30.927Z,-4.40
2018-12-24T19:47:57.452Z,-4.40
2018-12-24T19:50:24.082Z,-4.40
2018-12-24T19:52:50.705Z,-4.40
2018-12-24T19:55:17.323Z,-4.50
2018-12-24T19:57:43.822Z,-4.40
2018-12-24T20:00:10.218Z,-4.40
2018-12-24T20:02:36.794Z,-4.40
2018-12-24T20:05:04.094Z,-4.40
2018-12-24T20:07:30.459Z,-4.40
2018-12-24T20:09:56.851Z,-4.30
2018-12-24T20:12:23.751Z,-4.30
2018-12-24T20:14:50.302Z,-4.20
2018-12-24T20:17:16.783Z,-4.20
2018-12-24T20:19:43.338Z,-4.20
2018-12-24T20:22:09.967Z,-4.10
2018-12-24T20:24:36.488Z,-4.10
2018-12-24T20:27:03.262Z,-4.10
2018-12-24T20:29:29.766Z,-4.10
2018-12-24T20:31:56.191Z,-4.00
2018-12-24T20:34:23.269Z,-4.00
2018-12-24T20:36:49.740Z,-4.00
2018-12-24T20:39:16.018Z,-4.00
2018-12-24T20:41:42.457Z,-4.00
2018-12-24T20:44:08.882Z,-4.00
2018-12-24T20:46:35.441Z,-3.90
2018-12-24T20:49:01.780Z,-3.90
2018-12-24T20:51:28.186Z,-3.90
2018-12-24T20:53:54.471Z,-3.80
2018-12-24T20:56:20.975Z,-3.80
2018-12-24T20:58:47.462Z,-3.80
2018-12-24T21:01:14.092Z,-3.70
2018-12-24T21:03:42.509Z,-3.70
2018-12-24T21:06:08.842Z,-3.70
2018-12-24T21:08:35.471Z,-3.60
2018-12-24T21:11:02.090Z,-3.60
2018-12-24T21:13:29.186Z,-3.60
2018-12-24T21:15:55.727Z,-3.50
2018-12-24T21:18:22.254Z,-3.50
2018-12-24T21:20:48.895Z,-3.50
2018-12-24T21:23:15.532Z,-3.50
2018-12-24T21:25:42.185Z,-3.50
2018-12-24T21:28:08.595Z,-3.40
2018-12-24T21:30:35.029Z,-3.50
2018-12-24T21:33:01.441Z,-3.40
2018-12-24T21:35:27.852Z,-3.40
2018-12-24T21:37:54.419Z,-3.40
2018-12-24T21:40:20.814Z,-3.40
2018-12-24T21:42:54.409Z,-3.40
2018-12-24T21:45:15.499Z,-3.40
2018-12-24T21:47:42.170Z,-3.40
2018-12-24T21:50:08.636Z,-3.40
2018-12-24T21:52:35.064Z,-3.40
2018-12-24T21:55:01.579Z,-3.40
2018-12-24T21:57:28.051Z,-3.40
2018-12-24T21:59:54.715Z,-3.30
2018-12-24T22:02:21.237Z,-3.30
2018-12-24T22:04:47.579Z,-3.30
2018-12-24T22:07:14.026Z,-3.20
2018-12-24T22:09:40.643Z,-3.20
2018-12-24T22:12:07.078Z,-3.20
2018-12-24T22:14:33.810Z,-3.10
2018-12-24T22:17:00.280Z,-3.10
2018-12-24T22:19:26.809Z,-3.10
2018-12-24T22:21:53.470Z,-3.00
2018-12-24T22:24:19.958Z,-3.00
2018-12-24T22:26:46.597Z,-2.90
2018-12-24T22:29:13.186Z,-2.90
2018-12-24T22:31:40.331Z,-2.90
2018-12-24T22:34:06.811Z,-2.90
2018-12-24T22:36:33.318Z,-2.80
2018-12-24T22:38:59.738Z,-2.80
2018-12-24T22:41:26.220Z,-2.80
2018-12-24T22:43:52.630Z,-2.70
2018-12-24T22:46:19.150Z,-2.70
2018-12-24T22:48:45.607Z,-2.70
2018-12-24T22:51:13.890Z,-2.70
2018-12-24T22:53:41.230Z,-2.70
2018-12-24T22:56:07.670Z,-2.60
2018-12-24T22:58:34.173Z,-2.60
2018-12-24T23:01:01.319Z,-2.60
2018-12-24T23:03:29.787Z,-2.50
2018-12-24T23:05:56.471Z,-2.50
2018-12-24T23:08:23.387Z,-2.50
2018-12-24T23:10:49.874Z,-2.40
2018-12-24T23:13:16.365Z,-2.40
2018-12-24T23:15:43.328Z,-2.40
2018-12-24T23:18:09.847Z,-2.40
2018-12-24T23:20:39.298Z,-2.30
2018-12-24T23:23:05.776Z,-2.30
2018-12-24T23:25:33.823Z,-2.30
2018-12-24T23:28:00.426Z,-2.30
2018-12-24T23:30:27.306Z,-2.20
2018-12-24T23:32:55.037Z,-2.20
2018-12-24T23:35:21.503Z,-2.20
2018-12-24T23:37:47.785Z,-2.10
2018-12-24T23:40:15.922Z,-2.10
2018-12-24T23:42:43.268Z,-2.10
2018-12-24T23:45:09.764Z,-2.10
2018-12-24T23:47:36.320Z,-2.00
2018-12-24T23:50:03.984Z,-2.00
2018-12-24T23:52:30.658Z,-2.00
2018-12-24T23:54:57.093Z,-2.00
2018-12-24T23:57:24.544Z,-1.90
2018-12-24T23:59:52.853Z,-1.90
